Long Beach, Washington
Current Conditions -  °F | °C
As of 12:55 AM on Friday 24 Oct 2014 (Local Time) from KAST Reporting Station
Clear Clear  
Wind Chill: 50°   Ceiling: Unl
Heat Index: 50°   Visibility: 10mi
Dew Point: 48°   Wind: 3mph
Humidity: 93%   Direction: 100°E
Pressure: 29.98"   Gusts: NA
Location:  46.35°N, 124.05°W
Report Text: KAST 240755Z AUTO 10003KT 10SM CLR 10/09 A2998 RMK AO2 SLP152 T01000089 401610094
Loading
Personal Weather Stations






























Interactive Weather Map
Tropical Storm Tracking
New forecast layout! Learn more

10-Day Weather Forecast

Advertisements
Track Severe Weather on mobile